Airfield :
LOGIN :

Register | Disclaimer

   EN    FR    IT 

 










Legend :    VFR   Marginal VFR   IFR   Intensive IFR   Very Intensive IFR
Visi :
Ceiling :
>= 8 km
>= 3000ft
5 to 8 km
1000 to 3000 ft
1500m to 5 km
500 to 1000 ft
800 to 1500m
200 to 500 ft
< 800m
< 200 ft
Symbols :   Thunderstorms  Fog  Heavy snow  Heavy precipitations  Wind > 20 kt
SIGMETs :     Misc.  Thunderstorms  Icing  Turbulence  Mountain Waves  Volcanic Ashes







- Airport Elevation : 404 ft
- IATA code : WRO


EPWR - Wroclaw

CURRENT METAR :
  • 252100Z 01006KT 320V030 CAVOK 05/M01 Q1024

EXPIRED METARs :
  • 252030Z 01008KT CAVOK 05/M00 Q1023
  • 252000Z 01010KT 9999 FEW037 06/00 Q1023
  • 251930Z 01013KT 9999 FEW028 07/01 Q1023
  • 251900Z 34011G23KT 310V020 CAVOK 07/M00 Q1023
  • 251830Z 33007KT CAVOK 07/M01 Q1022

TAF TAF EPWR
Valid from the 25 at 18:00 until the 26 at 18:00 UTC


251730Z 2518/2618 35006KT CAVOK
BECMG 2600/2603 2800 BR
PROB30 2603/2606 0700 FZFG BKN002
BECMG 2606/2609 CAVOK
No reported NOTAMs for that airfield.



MET'MAP, your aeronautical weather chart ! - Copyright ORBIFLY December 2007 - Disclaimer

ORBIFLY MET'MAP TEAM :

Programming & Development : Alexandra Zaïnal
Concept & Development : Baudouin d'Aumeries
Co-Development & Prog : Marc-Olivier Méhu
Technical & hardware support : Manuel Goepfert

Contact : metmap@orbifly.com




SOURCES & CREDITS :

   NOAA